TimeAKST,TemperatureF,Dew PointF,Humidity,Sea Level PressureIn,VisibilityMPH,Wind Direction,Wind SpeedMPH,Gust SpeedMPH,PrecipitationIn,Events,Conditions,WindDirDegrees,DateUTC
12:16 AM,35.6,32.0,87,29.73,5.0,SE,26.5,34.5,N/A,,Overcast,140,2011-12-12 09:16:00
12:36 AM,35.6,32.0,87,29.72,10.0,SE,29.9,35.7,N/A,,Overcast,140,2011-12-12 09:36:00
12:56 AM,35.6,32.0,87,29.72,8.0,SE,25.3,35.7,N/A,,Overcast,140,2011-12-12 09:56:00
1:16 AM,35.6,32.0,87,29.72,9.0,SE,23.0,29.9,N/A,,Overcast,140,2011-12-12 10:16:00
1:36 AM,35.6,32.0,87,29.71,9.0,SE,25.3,31.1,N/A,,Overcast,140,2011-12-12 10:36:00
1:56 AM,35.6,32.0,87,29.72,5.0,SSE,18.4,-,N/A,,Overcast,150,2011-12-12 10:56:00
2:16 AM,35.6,32.0,87,29.71,5.0,SE,16.1,21.9,N/A,,Overcast,140,2011-12-12 11:16:00
2:36 AM,35.6,32.0,87,29.71,10.0,SE,18.4,24.2,N/A,,Overcast,140,2011-12-12 11:36:00
2:56 AM,35.6,33.8,93,29.70,10.0,SE,13.8,-,N/A,,Overcast,140,2011-12-12 11:56:00
3:16 AM,35.6,33.8,93,29.69,8.0,SSE,10.4,-,N/A,,Mostly Cloudy,150,2011-12-12 12:16:00
3:36 AM,35.6,33.8,93,29.69,10.0,SE,12.7,17.3,N/A,,Mostly Cloudy,140,2011-12-12 12:36:00
3:56 AM,35.6,33.8,93,29.68,10.0,SSE,15.0,-,N/A,,Mostly Cloudy,150,2011-12-12 12:56:00
4:16 AM,37.4,33.8,87,29.70,10.0,South,8.1,-,N/A,,Mostly Cloudy,190,2011-12-12 13:16:00
4:36 AM,37.4,33.8,87,29.69,8.0,South,10.4,-,N/A,,Overcast,170,2011-12-12 13:36:00
4:56 AM,39.2,33.8,81,29.68,10.0,South,8.1,-,N/A,,Overcast,190,2011-12-12 13:56:00
5:16 AM,39.2,33.8,81,29.68,10.0,South,8.1,-,N/A,,Overcast,170,2011-12-12 14:16:00
5:36 AM,37.4,33.8,87,29.68,10.0,SE,9.2,-,N/A,,Mostly Cloudy,140,2011-12-12 14:36:00
5:56 AM,37.4,33.8,87,29.68,10.0,Calm,Calm,-,N/A,,Mostly Cloudy,0,2011-12-12 14:56:00
6:16 AM,37.4,33.8,87,29.67,10.0,SE,8.1,-,N/A,,Mostly Cloudy,140,2011-12-12 15:16:00
6:36 AM,37.4,33.8,87,29.69,9.0,SW,5.8,-,N/A,,Mostly Cloudy,220,2011-12-12 15:36:00
6:56 AM,39.2,33.8,81,29.68,10.0,SSW,10.4,19.6,N/A,,Mostly Cloudy,210,2011-12-12 15:56:00
7:16 AM,37.4,33.8,87,29.68,10.0,SE,3.5,-,N/A,,Scattered Clouds,130,2011-12-12 16:16:00
7:36 AM,39.2,32.0,75,29.69,10.0,SSE,5.8,-,N/A,,Mostly Cloudy,160,2011-12-12 16:36:00
7:56 AM,37.4,30.2,75,29.69,10.0,SSW,5.8,-,N/A,,Mostly Cloudy,200,2011-12-12 16:56:00
8:16 AM,37.4,32.0,81,29.69,10.0,SSE,8.1,-,N/A,,Overcast,150,2011-12-12 17:16:00
8:36 AM,35.6,32.0,87,29.70,6.0,Calm,Calm,-,N/A,,Overcast,0,2011-12-12 17:36:00
8:56 AM,37.4,33.8,87,29.69,10.0,South,10.4,-,N/A,,Overcast,170,2011-12-12 17:56:00
9:16 AM,39.2,33.8,81,29.70,10.0,SSE,6.9,-,N/A,,Mostly Cloudy,150,2011-12-12 18:16:00
9:36 AM,39.2,33.8,81,29.72,9.0,WSW,15.0,18.4,N/A,,Mostly Cloudy,250,2011-12-12 18:36:00
9:56 AM,37.4,32.0,81,29.73,10.0,ESE,6.9,-,N/A,,Mostly Cloudy,120,2011-12-12 18:56:00
10:16 AM,37.4,33.8,87,29.73,7.0,SSW,11.5,18.4,N/A,,Overcast,210,2011-12-12 19:16:00
10:36 AM,39.2,33.8,81,29.72,10.0,SSW,11.5,16.1,N/A,,Mostly Cloudy,210,2011-12-12 19:36:00
10:56 AM,39.2,32.0,75,29.72,10.0,South,11.5,17.3,N/A,,Scattered Clouds,190,2011-12-12 19:56:00
11:16 AM,39.2,32.0,75,29.72,10.0,SSE,8.1,-,N/A,,Mostly Cloudy,150,2011-12-12 20:16:00
11:36 AM,37.4,32.0,81,29.73,10.0,ESE,4.6,-,N/A,,Overcast,110,2011-12-12 20:36:00
11:56 AM,39.2,32.0,75,29.74,10.0,ESE,5.8,-,N/A,,Overcast,120,2011-12-12 20:56:00
12:16 PM,39.2,32.0,75,29.74,10.0,SE,11.5,-,N/A,,Overcast,140,2011-12-12 21:16:00
12:36 PM,39.2,32.0,75,29.76,10.0,South,10.4,18.4,N/A,,Overcast,190,2011-12-12 21:36:00
12:56 PM,39.2,30.2,70,29.75,10.0,South,9.2,-,N/A,,Mostly Cloudy,170,2011-12-12 21:56:00
1:16 PM,37.4,32.0,81,29.75,10.0,SE,8.1,-,N/A,,Overcast,140,2011-12-12 22:16:00
1:36 PM,39.2,30.2,70,29.75,10.0,SSE,8.1,-,N/A,,Mostly Cloudy,150,2011-12-12 22:36:00
1:56 PM,37.4,30.2,75,29.74,10.0,SE,9.2,-,N/A,,Mostly Cloudy,140,2011-12-12 22:56:00
2:16 PM,37.4,30.2,75,29.76,3.0,SW,18.4,23.0,N/A,,Overcast,230,2011-12-12 23:16:00
2:36 PM,33.8,30.2,87,29.76,5.0,SSW,8.1,-,N/A,,Mostly Cloudy,200,2011-12-12 23:36:00
2:56 PM,35.6,32.0,87,29.77,10.0,South,8.1,-,N/A,,Mostly Cloudy,170,2011-12-12 23:56:00
3:16 PM,35.6,32.0,87,29.77,10.0,SSE,8.1,-,N/A,,Overcast,150,2011-12-13 00:16:00
3:36 PM,35.6,32.0,87,29.76,10.0,ESE,8.1,-,N/A,,Overcast,120,2011-12-13 00:36:00
3:56 PM,35.6,30.2,81,29.76,10.0,ESE,13.8,18.4,N/A,,Overcast,120,2011-12-13 00:56:00
4:16 PM,35.6,32.0,87,29.77,10.0,SE,9.2,-,N/A,,Overcast,130,2011-12-13 01:16:00
4:36 PM,35.6,32.0,87,29.78,10.0,South,9.2,16.1,N/A,,Overcast,180,2011-12-13 01:36:00
4:56 PM,35.6,32.0,87,29.78,10.0,SE,8.1,-,N/A,,Overcast,130,2011-12-13 01:56:00
5:16 PM,35.6,30.2,81,29.78,10.0,SE,5.8,-,N/A,,Overcast,140,2011-12-13 02:16:00
5:36 PM,35.6,30.2,81,29.78,10.0,SE,6.9,-,N/A,,Overcast,140,2011-12-13 02:36:00
5:56 PM,35.6,30.2,81,29.77,10.0,SE,9.2,-,N/A,,Overcast,140,2011-12-13 02:56:00
6:16 PM,35.6,32.0,87,29.77,10.0,SE,11.5,-,N/A,,Overcast,140,2011-12-13 03:16:00
6:36 PM,35.6,32.0,87,29.78,8.0,SE,11.5,-,N/A,,Overcast,130,2011-12-13 03:36:00
6:56 PM,35.6,32.0,87,29.78,10.0,SE,12.7,-,N/A,,Overcast,140,2011-12-13 03:56:00
7:16 PM,35.6,32.0,87,29.78,10.0,SSE,8.1,-,N/A,,Overcast,150,2011-12-13 04:16:00
7:36 PM,35.6,32.0,87,29.78,10.0,SSE,5.8,-,N/A,,Mostly Cloudy,160,2011-12-13 04:36:00
7:56 PM,35.6,30.2,81,29.79,10.0,East,4.6,-,N/A,,Overcast,100,2011-12-13 04:56:00
8:16 PM,35.6,32.0,87,29.79,10.0,SE,15.0,-,N/A,,Overcast,130,2011-12-13 05:16:00
8:36 PM,35.6,32.0,87,29.79,10.0,ESE,12.7,-,N/A,,Overcast,120,2011-12-13 05:36:00
8:56 PM,35.6,32.0,87,29.80,10.0,SE,10.4,-,N/A,,Mostly Cloudy,140,2011-12-13 05:56:00
9:16 PM,35.6,32.0,87,29.80,10.0,East,6.9,-,N/A,,Mostly Cloudy,100,2011-12-13 06:16:00
9:36 PM,35.6,32.0,87,29.80,10.0,ESE,8.1,-,N/A,,Overcast,110,2011-12-13 06:36:00
9:56 PM,35.6,32.0,87,29.80,10.0,ESE,6.9,-,N/A,,Overcast,110,2011-12-13 06:56:00
10:16 PM,35.6,32.0,87,29.80,10.0,ESE,10.4,-,N/A,,Overcast,110,2011-12-13 07:16:00
10:36 PM,35.6,32.0,87,29.81,10.0,SE,9.2,-,N/A,,Overcast,140,2011-12-13 07:36:00
10:56 PM,35.6,33.8,93,29.82,10.0,SE,6.9,-,N/A,,Overcast,140,2011-12-13 07:56:00
11:16 PM,37.4,33.8,87,29.82,10.0,SW,5.8,-,N/A,,Overcast,220,2011-12-13 08:16:00
11:36 PM,35.6,30.2,81,29.82,10.0,South,8.1,-,N/A,,Mostly Cloudy,180,2011-12-13 08:36:00
11:56 PM,35.6,30.2,81,29.83,10.0,SSE,8.1,-,N/A,,Overcast,160,2011-12-13 08:56:00